Terminal Aerodrome Forecast
Issued by NWS

Home | Current Version | Previous Version | Text Only | Print | Product List | Glossary On
Versions: 1 2 3 4 5 6 7 8 9 10 11 12 13 14 15 16 17
000
FTUS46 KSEW 250527
TAFHQM
TAF
KHQM 250527Z 2506/2606 31004KT 6SM BR FEW022 SCT050
      TEMPO 2506/2508 FEW022 BKN050
     FM250900 VRB03KT 6SM BR OVC018
     FM251200 VRB03KT 5SM BR OVC012
     FM251800 19006KT P6SM SCT018
     FM252000 25011KT P6SM SKC
     FM260300 29004KT P6SM SKC=

USA.gov is the U.S. government's official web portal to all federal, state and local government web resources and services.